Crystal Lake, Iowa
Current Conditions -  °F | °C
As of 3:10 AM on Saturday 29 Nov 2014 (Local Time) from KFXY Reporting Station
Haze Haze  
Wind Chill: 17°   Ceiling: 200
Heat Index: 27°   Visibility: 2mi
Dew Point: 27°   Wind: 9mph
Humidity: 100%   Direction: 130°SE
Pressure: 29.56"   Gusts: NA
Location:  43.22°N, 93.79°W
Report Text: KFXY 290910Z AUTO 13008KT 2SM BR OVC002 M03/M03 A2956 RMK AO2
Loading
Personal Weather Stations






























Interactive Weather Map New forecast layout! Learn more

10-Day Weather Forecast

Advertisements
Track Severe Weather on mobile